Flatwood, Texas
Current Conditions -  °F | °C
As of 4:53 AM on Friday 28 Nov 2014 (Local Time) from KTYR Reporting Station
Clear Clear  
Wind Chill: 34°   Ceiling: Unl
Heat Index: 39°   Visibility: 10mi
Dew Point: 31°   Wind: 7mph
Humidity: 73%   Direction: 170°S
Pressure: 30.33"   Gusts: NA
Location:  32.416°N, 95.6606°W
Report Text: KTYR 281053Z 17006KT 10SM CLR 04/M01 A3033 RMK AO2 SLP268 T00391006
Loading
Personal Weather Stations






























Interactive Weather Map New forecast layout! Learn more

10-Day Weather Forecast

Advertisements
Track Severe Weather on mobile